Time,TemperatureF,DewpointF,PressureIn,WindDirection,WindDirectionDegrees,WindSpeedMPH,WindSpeedGustMPH,Humidity,HourlyPrecipIn,Conditions,Clouds,dailyrainin,SoftwareType,DateUTC
2013-03-26 00:00:00,28.6,24.6,29.70,North,355,0.0,3.0,85,0.00,,,0.00,meteohub,2013-03-26 04:00:00,
2013-03-26 00:01:00,28.6,24.6,29.70,North,355,2.0,3.0,85,0.00,,,0.00,meteohub,2013-03-26 04:01:00,
2013-03-26 00:03:00,28.6,24.6,29.70,North,355,3.0,3.0,85,0.00,,,0.00,meteohub,2013-03-26 04:03:00,
2013-03-26 00:09:00,28.6,24.4,29.70,North,355,0.0,4.0,84,0.00,,,0.00,meteohub,2013-03-26 04:09:00,
2013-03-26 00:14:00,28.6,24.4,29.70,North,355,4.0,4.0,84,0.00,,,0.00,meteohub,2013-03-26 04:14:00,
2013-03-26 00:19:00,28.6,24.4,29.70,North,355,0.0,4.0,84,0.00,,,0.00,meteohub,2013-03-26 04:19:00,
2013-03-26 00:25:00,28.6,24.1,29.70,North,355,0.0,4.0,83,0.00,,,0.00,meteohub,2013-03-26 04:25:00,
2013-03-26 00:30:00,28.6,24.1,29.70,North,350,0.0,4.0,83,0.00,,,0.00,meteohub,2013-03-26 04:30:00,
2013-03-26 00:35:00,28.4,23.9,29.70,North,350,0.0,4.0,83,0.00,,,0.00,meteohub,2013-03-26 04:35:00,
2013-03-26 00:41:00,28.0,23.5,29.70,North,350,0.0,4.0,83,0.00,,,0.00,meteohub,2013-03-26 04:41:00,
2013-03-26 00:46:00,27.9,23.7,29.70,NNW,347,1.0,4.0,84,0.00,,,0.00,meteohub,2013-03-26 04:46:00,
2013-03-26 00:52:00,27.3,22.8,29.70,NNW,347,0.0,4.0,83,0.00,,,0.00,meteohub,2013-03-26 04:52:00,
2013-03-26 00:57:00,26.4,22.5,29.70,North,351,2.0,4.0,85,0.00,,,0.00,meteohub,2013-03-26 04:57:00,
2013-03-26 01:02:00,25.9,22.3,29.69,North,351,1.0,4.0,86,0.00,,,0.00,meteohub,2013-03-26 05:02:00,
2013-03-26 01:07:00,25.5,22.3,29.69,North,351,1.0,4.0,87,0.00,,,0.00,meteohub,2013-03-26 05:07:00,
2013-03-26 01:12:00,25.3,22.1,29.69,North,351,1.0,3.0,87,0.00,,,0.00,meteohub,2013-03-26 05:12:00,
2013-03-26 01:17:00,24.6,21.4,29.69,North,351,3.0,3.0,87,0.00,,,0.00,meteohub,2013-03-26 05:17:00,
2013-03-26 01:23:00,24.3,21.2,29.68,North,355,2.0,4.0,88,0.00,,,0.00,meteohub,2013-03-26 05:23:00,
2013-03-26 01:28:00,24.4,21.7,29.68,North,355,0.0,4.0,89,0.00,,,0.00,meteohub,2013-03-26 05:28:00,
2013-03-26 01:33:00,23.7,20.7,29.68,North,5,1.0,4.0,88,0.00,,,0.00,meteohub,2013-03-26 05:33:00,
2013-03-26 01:38:00,23.4,20.7,29.68,North,5,1.0,3.0,89,0.00,,,0.00,meteohub,2013-03-26 05:38:00,
2013-03-26 01:44:00,22.8,20.3,29.68,NNE,12,1.0,3.0,90,0.00,,,0.00,meteohub,2013-03-26 05:44:00,
2013-03-26 01:49:00,22.6,20.5,29.68,NNE,12,2.0,3.0,91,0.00,,,0.00,meteohub,2013-03-26 05:49:00,
2013-03-26 01:54:00,22.5,20.3,29.68,NNE,13,2.0,3.0,91,0.00,,,0.00,meteohub,2013-03-26 05:54:00,
2013-03-26 01:59:00,22.1,20.1,29.68,NNE,13,0.0,3.0,92,0.00,,,0.00,meteohub,2013-03-26 05:59:00,
2013-03-26 02:05:00,22.1,20.1,29.68,NNE,13,0.0,4.0,92,0.00,,,0.00,meteohub,2013-03-26 06:05:00,
2013-03-26 02:10:00,21.9,20.1,29.67,NNE,13,0.0,3.0,93,0.00,,,0.00,meteohub,2013-03-26 06:10:00,
2013-03-26 02:16:00,21.9,20.1,29.67,NNE,13,0.0,3.0,93,0.00,,,0.00,meteohub,2013-03-26 06:16:00,
2013-03-26 02:22:00,21.7,19.8,29.67,NNE,13,0.0,3.0,92,0.00,,,0.00,meteohub,2013-03-26 06:22:00,
2013-03-26 02:27:00,21.6,19.9,29.67,NNE,13,0.0,3.0,93,0.00,,,0.00,meteohub,2013-03-26 06:27:00,
2013-03-26 02:32:00,21.4,19.8,29.67,NNE,13,2.0,3.0,93,0.00,,,0.00,meteohub,2013-03-26 06:32:00,
2013-03-26 02:37:00,21.4,19.8,29.67,NNE,13,2.0,2.0,93,0.00,,,0.00,meteohub,2013-03-26 06:37:00,
2013-03-26 02:42:00,21.0,19.4,29.67,NE,41,2.0,3.0,93,0.00,,,0.00,meteohub,2013-03-26 06:42:00,
2013-03-26 02:47:00,20.8,19.2,29.67,NE,38,1.0,3.0,93,0.00,,,0.00,meteohub,2013-03-26 06:47:00,
2013-03-26 02:52:00,21.0,19.4,29.66,NE,38,1.0,4.0,93,0.00,,,0.00,meteohub,2013-03-26 06:52:00,
2013-03-26 02:57:00,21.0,19.4,29.66,NE,38,1.0,4.0,93,0.00,,,0.00,meteohub,2013-03-26 06:57:00,
2013-03-26 03:02:00,21.2,19.6,29.66,North,9,2.0,2.0,93,0.00,,,0.00,meteohub,2013-03-26 07:02:00,
2013-03-26 03:07:00,21.2,19.6,29.66,NNW,346,3.0,3.0,93,0.00,,,0.00,meteohub,2013-03-26 07:07:00,
2013-03-26 03:13:00,21.4,19.8,29.66,NNW,346,1.0,4.0,93,0.00,,,0.00,meteohub,2013-03-26 07:13:00,
2013-03-26 03:18:00,21.4,19.8,29.65,NNW,346,1.0,4.0,93,0.00,,,0.00,meteohub,2013-03-26 07:18:00,
2013-03-26 03:23:00,21.6,19.9,29.65,North,0,0.0,4.0,93,0.00,,,0.00,meteohub,2013-03-26 07:23:00,
2013-03-26 03:28:00,21.4,19.8,29.66,NNE,15,3.0,3.0,93,0.00,,,0.00,meteohub,2013-03-26 07:28:00,
2013-03-26 03:34:00,21.2,19.2,29.66,NNE,12,3.0,4.0,92,0.00,,,0.00,meteohub,2013-03-26 07:34:00,
2013-03-26 03:39:00,21.0,19.0,29.65,NNW,340,0.0,4.0,92,0.00,,,0.00,meteohub,2013-03-26 07:39:00,
2013-03-26 03:44:00,20.8,19.2,29.65,North,5,1.0,4.0,93,0.00,,,0.00,meteohub,2013-03-26 07:44:00,
2013-03-26 03:50:00,20.8,19.2,29.65,NNW,340,2.0,4.0,93,0.00,,,0.00,meteohub,2013-03-26 07:50:00,
2013-03-26 03:55:00,20.7,18.7,29.65,North,355,1.0,4.0,92,0.00,,,0.00,meteohub,2013-03-26 07:55:00,
2013-03-26 04:00:00,20.7,18.7,29.65,North,351,2.0,4.0,92,0.00,,,0.00,meteohub,2013-03-26 08:00:00,
2013-03-26 04:06:00,20.7,19.0,29.65,North,0,2.0,4.0,93,0.00,,,0.00,meteohub,2013-03-26 08:06:00,
2013-03-26 04:12:00,20.8,19.2,29.65,North,355,2.0,4.0,93,0.00,,,0.00,meteohub,2013-03-26 08:12:00,
2013-03-26 04:17:00,21.0,19.4,29.65,North,355,0.0,4.0,93,0.00,,,0.00,meteohub,2013-03-26 08:17:00,
2013-03-26 04:22:00,21.0,19.4,29.65,North,355,2.0,4.0,93,0.00,,,0.00,meteohub,2013-03-26 08:22:00,
2013-03-26 04:27:00,21.0,19.0,29.65,NNE,18,3.0,4.0,92,0.00,,,0.00,meteohub,2013-03-26 08:27:00,
2013-03-26 04:33:00,20.8,18.9,29.65,North,5,3.0,4.0,92,0.00,,,0.00,meteohub,2013-03-26 08:33:00,
2013-03-26 04:38:00,20.8,18.9,29.65,North,355,0.0,4.0,92,0.00,,,0.00,meteohub,2013-03-26 08:38:00,
2013-03-26 04:43:00,20.8,19.2,29.65,North,355,0.0,4.0,93,0.00,,,0.00,meteohub,2013-03-26 08:43:00,
2013-03-26 04:48:00,20.8,19.2,29.65,North,0,2.0,4.0,93,0.00,,,0.00,meteohub,2013-03-26 08:48:00,
2013-03-26 04:53:00,20.7,18.7,29.65,North,0,2.0,4.0,92,0.00,,,0.00,meteohub,2013-03-26 08:53:00,
2013-03-26 04:59:00,20.5,18.5,29.65,North,350,2.0,4.0,92,0.00,,,0.00,meteohub,2013-03-26 08:59:00,
2013-03-26 05:04:00,20.7,19.0,29.65,North,355,1.0,4.0,93,0.00,,,0.00,meteohub,2013-03-26 09:04:00,
2013-03-26 05:09:00,20.8,19.2,29.65,North,355,2.0,4.0,93,0.00,,,0.00,meteohub,2013-03-26 09:09:00,
2013-03-26 05:14:00,20.8,19.2,29.65,North,0,0.0,4.0,93,0.00,,,0.00,meteohub,2013-03-26 09:14:00,
2013-03-26 05:20:00,21.0,19.4,29.65,North,5,2.0,4.0,93,0.00,,,0.00,meteohub,2013-03-26 09:20:00,
2013-03-26 05:25:00,21.0,19.4,29.65,North,5,1.0,4.0,93,0.00,,,0.00,meteohub,2013-03-26 09:25:00,
2013-03-26 05:30:00,21.4,19.8,29.65,North,5,1.0,4.0,93,0.00,,,0.00,meteohub,2013-03-26 09:30:00,
2013-03-26 05:35:00,21.7,20.1,29.65,North,5,2.0,3.0,93,0.00,,,0.00,meteohub,2013-03-26 09:35:00,
2013-03-26 05:41:00,22.1,20.3,29.65,North,5,1.0,3.0,93,0.00,,,0.00,meteohub,2013-03-26 09:41:00,
2013-03-26 05:46:00,22.3,20.5,29.65,North,5,1.0,3.0,93,0.00,,,0.00,meteohub,2013-03-26 09:46:00,
2013-03-26 05:52:00,22.5,20.7,29.64,North,5,1.0,3.0,93,0.00,,,0.00,meteohub,2013-03-26 09:52:00,
2013-03-26 05:57:00,22.6,20.8,29.64,North,5,2.0,3.0,93,0.00,,,0.00,meteohub,2013-03-26 09:57:00,
2013-03-26 06:02:00,22.6,20.8,29.65,North,5,2.0,4.0,93,0.00,,,0.00,meteohub,2013-03-26 10:02:00,
2013-03-26 06:07:00,23.0,21.2,29.64,North,5,1.0,4.0,93,0.00,,,0.00,meteohub,2013-03-26 10:07:00,
2013-03-26 06:12:00,23.2,21.4,29.64,North,5,1.0,3.0,93,0.00,,,0.00,meteohub,2013-03-26 10:12:00,
2013-03-26 06:17:00,23.4,21.6,29.64,North,5,0.0,3.0,93,0.00,,,0.00,meteohub,2013-03-26 10:17:00,
2013-03-26 06:22:00,23.5,21.7,29.64,North,5,0.0,3.0,93,0.00,,,0.00,meteohub,2013-03-26 10:22:00,
2013-03-26 06:27:00,23.7,22.3,29.64,North,5,1.0,2.0,94,0.00,,,0.00,meteohub,2013-03-26 10:27:00,
2013-03-26 06:33:00,24.1,22.6,29.64,North,5,0.0,2.0,94,0.00,,,0.00,meteohub,2013-03-26 10:33:00,
2013-03-26 06:38:00,24.3,22.5,29.64,North,5,0.0,2.0,93,0.00,,,0.00,meteohub,2013-03-26 10:38:00,
2013-03-26 06:43:00,24.3,22.5,29.64,North,5,0.0,2.0,93,0.00,,,0.00,meteohub,2013-03-26 10:43:00,
2013-03-26 06:48:00,24.4,23.0,29.64,North,5,0.0,2.0,94,0.00,,,0.00,meteohub,2013-03-26 10:48:00,
2013-03-26 06:53:00,24.6,23.2,29.64,North,5,0.0,2.0,94,0.00,,,0.00,meteohub,2013-03-26 10:53:00,
2013-03-26 06:59:00,25.0,23.5,29.64,North,5,0.0,2.0,94,0.00,,,0.00,meteohub,2013-03-26 10:59:00,
2013-03-26 07:04:00,25.2,23.7,29.63,North,5,0.0,2.0,94,0.00,,,0.00,meteohub,2013-03-26 11:04:00,
2013-03-26 07:09:00,25.2,23.7,29.64,North,5,0.0,2.0,94,0.00,,,0.00,meteohub,2013-03-26 11:09:00,
2013-03-26 07:14:00,25.3,23.9,29.63,North,5,0.0,0.0,94,0.00,,,0.00,meteohub,2013-03-26 11:14:00,
2013-03-26 07:20:00,25.5,24.1,29.63,North,5,0.0,0.0,94,0.00,,,0.00,meteohub,2013-03-26 11:20:00,
2013-03-26 07:25:00,26.1,24.6,29.63,NNE,26,0.0,0.0,94,0.00,,,0.00,meteohub,2013-03-26 11:25:00,
2013-03-26 07:30:00,26.2,24.8,29.63,NNE,26,0.0,3.0,94,0.00,,,0.00,meteohub,2013-03-26 11:30:00,
2013-03-26 07:36:00,26.8,25.3,29.63,North,0,2.0,3.0,94,0.00,,,0.00,meteohub,2013-03-26 11:36:00,
2013-03-26 07:42:00,27.3,26.1,29.63,WNW,289,1.0,3.0,95,0.00,,,0.00,meteohub,2013-03-26 11:42:00,
2013-03-26 07:47:00,28.2,26.8,29.63,NW,311,0.0,3.0,94,0.00,,,0.00,meteohub,2013-03-26 11:47:00,
2013-03-26 07:52:00,28.8,27.3,29.64,NNW,346,1.0,3.0,94,0.00,,,0.00,meteohub,2013-03-26 11:52:00,
2013-03-26 07:57:00,29.5,27.7,29.64,NNW,347,0.0,3.0,93,0.00,,,0.00,meteohub,2013-03-26 11:57:00,
2013-03-26 08:02:00,29.8,28.0,29.64,NNW,338,2.0,4.0,93,0.00,,,0.00,meteohub,2013-03-26 12:02:00,
2013-03-26 08:07:00,30.6,28.6,29.64,North,355,5.0,5.0,92,0.00,,,0.00,meteohub,2013-03-26 12:07:00,
2013-03-26 08:13:00,31.1,28.6,29.64,NNW,348,2.0,5.0,90,0.00,,,0.00,meteohub,2013-03-26 12:13:00,
2013-03-26 08:18:00,31.5,28.6,29.64,NNE,17,1.0,6.0,89,0.00,,,0.00,meteohub,2013-03-26 12:18:00,
2013-03-26 08:23:00,31.8,28.9,29.63,NW,305,3.0,8.0,89,0.00,,,0.00,meteohub,2013-03-26 12:23:00,
2013-03-26 08:28:00,32.2,28.9,29.63,WNW,302,5.0,8.0,88,0.00,,,0.00,meteohub,2013-03-26 12:28:00,
2013-03-26 08:33:00,32.4,29.1,29.63,NNW,328,0.0,8.0,88,0.00,,,0.00,meteohub,2013-03-26 12:33:00,
2013-03-26 08:39:00,32.7,29.3,29.63,NW,319,0.0,7.0,87,0.00,,,0.00,meteohub,2013-03-26 12:39:00,
2013-03-26 08:44:00,33.1,29.3,29.63,North,350,2.0,7.0,86,0.00,,,0.00,meteohub,2013-03-26 12:44:00,
2013-03-26 08:49:00,33.4,29.7,29.63,NNW,331,2.0,7.0,86,0.00,,,0.00,meteohub,2013-03-26 12:49:00,
2013-03-26 08:54:00,33.6,29.7,29.63,North,5,5.0,7.0,85,0.00,,,0.00,meteohub,2013-03-26 12:54:00,
2013-03-26 09:00:00,34.0,29.7,29.63,North,355,6.0,8.0,84,0.00,,,0.00,meteohub,2013-03-26 13:00:00,
2013-03-26 09:05:00,34.2,29.5,29.63,NNW,337,3.0,9.0,83,0.00,,,0.00,meteohub,2013-03-26 13:05:00,
2013-03-26 09:10:00,34.5,29.8,29.63,NW,324,2.0,10.0,83,0.00,,,0.00,meteohub,2013-03-26 13:10:00,
2013-03-26 09:16:00,34.9,29.7,29.63,NNW,344,8.0,10.0,81,0.00,,,0.00,meteohub,2013-03-26 13:16:00,
2013-03-26 09:21:00,35.1,29.5,29.63,NE,42,2.0,10.0,80,0.00,,,0.00,meteohub,2013-03-26 13:21:00,
2013-03-26 09:26:00,35.2,29.3,29.63,NNE,13,2.0,11.0,79,0.00,,,0.00,meteohub,2013-03-26 13:26:00,
2013-03-26 09:31:00,35.4,29.5,29.63,North,355,7.0,11.0,79,0.00,,,0.00,meteohub,2013-03-26 13:31:00,
2013-03-26 09:36:00,35.8,29.8,29.63,North,5,5.0,12.0,79,0.00,,,0.00,meteohub,2013-03-26 13:36:00,
2013-03-26 09:42:00,36.3,30.2,29.63,North,355,3.0,12.0,78,0.00,,,0.00,meteohub,2013-03-26 13:42:00,
2013-03-26 09:47:00,36.9,30.0,29.63,NNE,13,4.0,12.0,76,0.00,,,0.00,meteohub,2013-03-26 13:47:00,
2013-03-26 09:52:00,37.0,29.8,29.63,NE,37,5.0,10.0,75,0.00,,,0.00,meteohub,2013-03-26 13:52:00,
2013-03-26 09:57:00,37.2,30.4,29.63,NNE,28,1.0,14.0,76,0.00,,,0.00,meteohub,2013-03-26 13:57:00,
2013-03-26 10:02:00,37.6,30.0,29.63,SW,233,7.0,14.0,74,0.00,,,0.00,meteohub,2013-03-26 14:02:00,
2013-03-26 10:07:00,37.6,30.0,29.63,North,355,5.0,12.0,74,0.00,,,0.00,meteohub,2013-03-26 14:07:00,
2013-03-26 10:12:00,37.2,29.7,29.63,North,10,8.0,14.0,74,0.00,,,0.00,meteohub,2013-03-26 14:12:00,
2013-03-26 10:17:00,37.0,30.2,29.63,NNE,25,6.0,14.0,76,0.00,,,0.00,meteohub,2013-03-26 14:17:00,
2013-03-26 10:23:00,36.7,29.8,29.63,NNE,13,8.0,14.0,76,0.00,,,0.00,meteohub,2013-03-26 14:23:00,
2013-03-26 10:28:00,36.3,29.8,29.63,North,355,6.0,15.0,77,0.00,,,0.00,meteohub,2013-03-26 14:28:00,
2013-03-26 10:33:00,36.3,30.4,29.63,North,355,6.0,15.0,79,0.00,,,0.00,meteohub,2013-03-26 14:33:00,
2013-03-26 10:38:00,36.1,30.2,29.63,NW,323,4.0,15.0,79,0.00,,,0.00,meteohub,2013-03-26 14:38:00,
2013-03-26 10:44:00,36.1,30.2,29.63,North,5,2.0,14.0,79,0.00,,,0.00,meteohub,2013-03-26 14:44:00,
2013-03-26 10:49:00,36.1,30.2,29.63,North,355,5.0,9.0,79,0.00,,,0.00,meteohub,2013-03-26 14:49:00,
2013-03-26 10:54:00,36.1,30.2,29.63,NNE,17,9.0,12.0,79,0.00,,,0.00,meteohub,2013-03-26 14:54:00,
2013-03-26 11:00:00,36.3,30.4,29.63,NE,34,5.0,13.0,79,0.00,,,0.00,meteohub,2013-03-26 15:00:00,
2013-03-26 11:05:00,36.3,30.4,29.63,NW,325,4.0,14.0,79,0.00,,,0.00,meteohub,2013-03-26 15:05:00,
2013-03-26 11:10:00,36.3,30.4,29.63,North,0,4.0,14.0,79,0.00,,,0.00,meteohub,2013-03-26 15:10:00,
2013-03-26 11:15:00,36.7,30.6,29.63,NNW,344,6.0,12.0,78,0.00,,,0.00,meteohub,2013-03-26 15:15:00,
2013-03-26 11:20:00,36.7,30.6,29.63,NNW,336,10.0,12.0,78,0.00,,,0.00,meteohub,2013-03-26 15:20:00,
2013-03-26 11:26:00,36.7,30.2,29.62,NNE,30,9.0,13.0,77,0.00,,,0.00,meteohub,2013-03-26 15:26:00,
2013-03-26 11:32:00,36.9,30.6,29.62,North,355,4.0,15.0,78,0.00,,,0.00,meteohub,2013-03-26 15:32:00,
2013-03-26 11:37:00,37.2,30.7,29.62,North,355,8.0,15.0,77,0.00,,,0.00,meteohub,2013-03-26 15:37:00,
2013-03-26 11:42:00,37.0,30.6,29.62,NE,56,3.0,14.0,77,0.00,,,0.00,meteohub,2013-03-26 15:42:00,
2013-03-26 11:47:00,37.0,30.6,29.62,NNW,348,4.0,13.0,77,0.00,,,0.00,meteohub,2013-03-26 15:47:00,
2013-03-26 11:52:00,36.9,30.6,29.63,North,355,7.0,14.0,78,0.00,,,0.00,meteohub,2013-03-26 15:52:00,
2013-03-26 11:57:00,36.9,30.6,29.62,North,349,6.0,14.0,78,0.00,,,0.00,meteohub,2013-03-26 15:57:00,
2013-03-26 12:02:00,36.9,30.9,29.62,NNW,332,6.0,11.0,79,0.00,,,0.00,meteohub,2013-03-26 16:02:00,
2013-03-26 12:07:00,36.9,30.9,29.62,WNW,302,5.0,13.0,79,0.00,,,0.00,meteohub,2013-03-26 16:07:00,
2013-03-26 12:12:00,37.0,31.5,29.62,NNE,14,7.0,13.0,80,0.00,,,0.00,meteohub,2013-03-26 16:12:00,
2013-03-26 12:17:00,37.2,31.3,29.62,North,10,3.0,14.0,79,0.00,,,0.00,meteohub,2013-03-26 16:17:00,
2013-03-26 12:22:00,37.2,30.7,29.62,NNE,15,3.0,14.0,77,0.00,,,0.00,meteohub,2013-03-26 16:22:00,
2013-03-26 12:27:00,37.4,30.9,29.62,NNW,348,8.0,15.0,77,0.00,,,0.00,meteohub,2013-03-26 16:27:00,
2013-03-26 12:32:00,37.6,31.1,29.62,ENE,57,5.0,15.0,77,0.00,,,0.00,meteohub,2013-03-26 16:32:00,
2013-03-26 12:37:00,37.4,30.9,29.62,North,5,7.0,15.0,77,0.00,,,0.00,meteohub,2013-03-26 16:37:00,
2013-03-26 12:42:00,37.2,30.7,29.62,North,355,5.0,15.0,77,0.00,,,0.00,meteohub,2013-03-26 16:42:00,
2013-03-26 12:47:00,37.0,30.6,29.62,North,5,8.0,15.0,77,0.00,,,0.00,meteohub,2013-03-26 16:47:00,
2013-03-26 12:53:00,37.2,30.7,29.62,North,355,10.0,15.0,77,0.00,,,0.00,meteohub,2013-03-26 16:53:00,
2013-03-26 12:58:00,37.6,30.4,29.62,North,11,9.0,13.0,75,0.00,,,0.00,meteohub,2013-03-26 16:58:00,
2013-03-26 13:03:00,37.8,30.2,29.62,North,11,8.0,17.0,74,0.00,,,0.00,meteohub,2013-03-26 17:03:00,
2013-03-26 13:08:00,37.6,30.4,29.62,North,5,5.0,17.0,75,0.00,,,0.00,meteohub,2013-03-26 17:08:00,
2013-03-26 13:14:00,37.4,30.2,29.62,NNE,14,6.0,17.0,75,0.00,,,0.00,meteohub,2013-03-26 17:14:00,
2013-03-26 13:19:00,37.0,29.8,29.62,North,351,8.0,16.0,75,0.00,,,0.00,meteohub,2013-03-26 17:19:00,
2013-03-26 13:24:00,37.0,30.2,29.63,NNW,348,3.0,15.0,76,0.00,,,0.00,meteohub,2013-03-26 17:24:00,
2013-03-26 13:30:00,37.2,30.4,29.63,NNE,13,2.0,15.0,76,0.00,,,0.00,meteohub,2013-03-26 17:30:00,
2013-03-26 13:35:00,37.0,29.8,29.63,NNW,339,4.0,15.0,75,0.00,,,0.00,meteohub,2013-03-26 17:35:00,
2013-03-26 13:40:00,37.0,29.8,29.63,North,355,4.0,13.0,75,0.00,,,0.00,meteohub,2013-03-26 17:40:00,
2013-03-26 13:45:00,37.0,29.8,29.63,NNW,345,5.0,13.0,75,0.00,,,0.00,meteohub,2013-03-26 17:45:00,
2013-03-26 13:50:00,37.2,30.4,29.63,North,355,7.0,13.0,76,0.00,,,0.00,meteohub,2013-03-26 17:50:00,
2013-03-26 13:56:00,37.4,30.9,29.64,North,355,9.0,13.0,77,0.00,,,0.00,meteohub,2013-03-26 17:56:00,
2013-03-26 14:01:00,37.4,30.9,29.64,North,5,8.0,12.0,77,0.00,,,0.00,meteohub,2013-03-26 18:01:00,
2013-03-26 14:07:00,37.0,31.1,29.64,North,355,7.0,13.0,79,0.00,,,0.00,meteohub,2013-03-26 18:07:00,
2013-03-26 14:12:00,36.5,30.9,29.64,North,5,4.0,16.0,80,0.00,,,0.00,meteohub,2013-03-26 18:12:00,
2013-03-26 14:17:00,36.3,30.7,29.63,West,277,9.0,16.0,80,0.00,,,0.00,meteohub,2013-03-26 18:17:00,
2013-03-26 14:22:00,36.5,30.6,29.64,NNW,331,2.0,13.0,79,0.00,,,0.00,meteohub,2013-03-26 18:22:00,
2013-03-26 14:27:00,36.7,30.7,29.64,NNW,344,11.0,13.0,79,0.00,,,0.00,meteohub,2013-03-26 18:27:00,
2013-03-26 14:32:00,36.7,30.7,29.64,NNE,15,6.0,12.0,79,0.00,,,0.00,meteohub,2013-03-26 18:32:00,
2013-03-26 14:37:00,36.3,30.7,29.64,North,5,5.0,12.0,80,0.00,,,0.00,meteohub,2013-03-26 18:37:00,
2013-03-26 14:43:00,36.7,31.1,29.64,South,185,6.0,12.0,80,0.00,,,0.00,meteohub,2013-03-26 18:43:00,
2013-03-26 14:48:00,36.3,31.1,29.64,NW,312,4.0,12.0,81,0.00,,,0.00,meteohub,2013-03-26 18:48:00,
2013-03-26 14:53:00,36.3,31.3,29.64,NNE,13,6.0,13.0,82,0.00,,,0.00,meteohub,2013-03-26 18:53:00,
2013-03-26 14:58:00,36.7,31.6,29.64,NNE,15,6.0,13.0,82,0.00,,,0.00,meteohub,2013-03-26 18:58:00,
2013-03-26 15:03:00,36.7,31.5,29.64,North,9,4.0,13.0,81,0.00,,,0.00,meteohub,2013-03-26 19:03:00,
2013-03-26 15:09:00,36.7,30.7,29.64,NW,315,9.0,11.0,79,0.00,,,0.00,meteohub,2013-03-26 19:09:00,
2013-03-26 15:14:00,37.0,30.7,29.64,NNW,340,6.0,11.0,78,0.00,,,0.00,meteohub,2013-03-26 19:14:00,
2013-03-26 15:19:00,37.2,30.9,29.64,North,355,10.0,11.0,78,0.00,,,0.00,meteohub,2013-03-26 19:19:00,
2013-03-26 15:24:00,37.0,30.2,29.64,NNW,342,6.0,12.0,76,0.00,,,0.00,meteohub,2013-03-26 19:24:00,
2013-03-26 15:30:00,36.9,30.4,29.64,North,350,5.0,13.0,77,0.00,,,0.00,meteohub,2013-03-26 19:30:00,
2013-03-26 15:35:00,37.0,30.7,29.64,ENE,60,7.0,13.0,78,0.00,,,0.00,meteohub,2013-03-26 19:35:00,
2013-03-26 15:40:00,36.9,30.4,29.64,NNW,343,4.0,13.0,77,0.00,,,0.00,meteohub,2013-03-26 19:40:00,
2013-03-26 15:45:00,36.9,30.6,29.64,NNE,22,5.0,10.0,78,0.00,,,0.00,meteohub,2013-03-26 19:45:00,
2013-03-26 15:50:00,36.9,30.4,29.64,NNW,329,7.0,12.0,77,0.00,,,0.00,meteohub,2013-03-26 19:50:00,
2013-03-26 15:55:00,37.0,30.6,29.64,North,5,12.0,13.0,77,0.00,,,0.00,meteohub,2013-03-26 19:55:00,
2013-03-26 16:00:00,36.9,30.0,29.64,NNW,348,8.0,14.0,76,0.00,,,0.00,meteohub,2013-03-26 20:00:00,
2013-03-26 16:05:00,36.7,30.2,29.64,North,9,1.0,15.0,77,0.00,,,0.00,meteohub,2013-03-26 20:05:00,
2013-03-26 16:11:00,36.7,30.2,29.63,NNE,25,3.0,15.0,77,0.00,,,0.00,meteohub,2013-03-26 20:11:00,
2013-03-26 16:16:00,36.9,30.4,29.64,North,355,7.0,15.0,77,0.00,,,0.00,meteohub,2013-03-26 20:16:00,
2013-03-26 16:21:00,37.0,30.2,29.64,NNE,15,5.0,12.0,76,0.00,,,0.00,meteohub,2013-03-26 20:21:00,
2013-03-26 16:27:00,37.0,30.2,29.64,NNE,25,7.0,11.0,76,0.00,,,0.00,meteohub,2013-03-26 20:27:00,
2013-03-26 16:32:00,37.0,30.2,29.64,NNW,338,4.0,12.0,76,0.00,,,0.00,meteohub,2013-03-26 20:32:00,
2013-03-26 16:37:00,36.9,30.0,29.64,NE,34,3.0,18.0,76,0.00,,,0.00,meteohub,2013-03-26 20:37:00,
2013-03-26 16:42:00,36.9,30.0,29.64,NNW,338,10.0,18.0,76,0.00,,,0.00,meteohub,2013-03-26 20:42:00,
2013-03-26 16:47:00,36.7,29.8,29.64,NNW,344,6.0,18.0,76,0.00,,,0.00,meteohub,2013-03-26 20:47:00,
2013-03-26 16:52:00,36.7,30.2,29.64,NW,316,4.0,13.0,77,0.00,,,0.00,meteohub,2013-03-26 20:52:00,
2013-03-26 16:58:00,36.3,29.8,29.64,NNW,333,3.0,12.0,77,0.00,,,0.00,meteohub,2013-03-26 20:58:00,
2013-03-26 17:03:00,36.3,30.4,29.65,North,355,5.0,14.0,79,0.00,,,0.00,meteohub,2013-03-26 21:03:00,
2013-03-26 17:08:00,36.1,30.6,29.65,North,355,6.0,14.0,80,0.00,,,0.00,meteohub,2013-03-26 21:08:00,
2013-03-26 17:13:00,36.0,30.4,29.65,North,5,4.0,14.0,80,0.00,,,0.00,meteohub,2013-03-26 21:13:00,
2013-03-26 17:18:00,36.0,30.7,29.65,NNW,340,3.0,9.0,81,0.00,,,0.00,meteohub,2013-03-26 21:18:00,
2013-03-26 17:24:00,36.0,30.7,29.65,North,355,3.0,9.0,81,0.00,,,0.00,meteohub,2013-03-26 21:24:00,
2013-03-26 17:29:00,36.0,30.7,29.65,North,5,3.0,10.0,81,0.00,,,0.00,meteohub,2013-03-26 21:29:00,
2013-03-26 17:34:00,35.8,30.7,29.66,East,94,1.0,10.0,82,0.00,,,0.00,meteohub,2013-03-26 21:34:00,
2013-03-26 17:39:00,35.8,30.7,29.66,NNW,348,5.0,11.0,82,0.00,,,0.00,meteohub,2013-03-26 21:39:00,
2013-03-26 17:44:00,35.8,31.1,29.66,North,350,1.0,11.0,83,0.00,,,0.00,meteohub,2013-03-26 21:44:00,
2013-03-26 17:49:00,35.8,31.1,29.66,North,355,3.0,12.0,83,0.00,,,0.00,meteohub,2013-03-26 21:49:00,
2013-03-26 17:55:00,35.8,30.7,29.66,North,355,7.0,12.0,82,0.00,,,0.00,meteohub,2013-03-26 21:55:00,
2013-03-26 18:00:00,35.8,31.1,29.66,North,5,4.0,12.0,83,0.00,,,0.00,meteohub,2013-03-26 22:00:00,
2013-03-26 18:05:00,35.6,30.9,29.66,North,10,8.0,11.0,83,0.00,,,0.00,meteohub,2013-03-26 22:05:00,
2013-03-26 18:10:00,35.6,30.9,29.66,North,9,6.0,11.0,83,0.00,,,0.00,meteohub,2013-03-26 22:10:00,
2013-03-26 18:15:00,35.4,30.7,29.67,North,355,2.0,10.0,83,0.00,,,0.00,meteohub,2013-03-26 22:15:00,
2013-03-26 18:20:00,35.2,30.9,29.67,North,355,6.0,10.0,84,0.00,,,0.00,meteohub,2013-03-26 22:20:00,
2013-03-26 18:25:00,35.2,30.9,29.67,NNW,345,8.0,10.0,84,0.00,,,0.00,meteohub,2013-03-26 22:25:00,
2013-03-26 18:30:00,35.1,30.7,29.67,North,350,4.0,10.0,84,0.00,,,0.00,meteohub,2013-03-26 22:30:00,
2013-03-26 18:36:00,35.1,30.7,29.67,WNW,302,2.0,10.0,84,0.00,,,0.00,meteohub,2013-03-26 22:36:00,
2013-03-26 18:41:00,35.1,30.7,29.67,WNW,288,1.0,10.0,84,0.00,,,0.00,meteohub,2013-03-26 22:41:00,
2013-03-26 18:47:00,34.9,30.6,29.67,NW,313,1.0,9.0,84,0.00,,,0.00,meteohub,2013-03-26 22:47:00,
2013-03-26 18:52:00,34.9,30.9,29.67,NW,309,3.0,9.0,85,0.00,,,0.00,meteohub,2013-03-26 22:52:00,
2013-03-26 18:58:00,34.7,30.9,29.67,North,355,3.0,9.0,86,0.00,,,0.00,meteohub,2013-03-26 22:58:00,
2013-03-26 19:03:00,34.3,30.9,29.67,North,10,2.0,10.0,87,0.00,,,0.00,meteohub,2013-03-26 23:03:00,
2013-03-26 19:08:00,34.2,30.9,29.67,North,355,3.0,10.0,88,0.00,,,0.00,meteohub,2013-03-26 23:08:00,
2013-03-26 19:14:00,34.0,31.1,29.67,NNW,334,1.0,10.0,89,0.00,,,0.00,meteohub,2013-03-26 23:14:00,
2013-03-26 19:19:00,33.8,31.1,29.67,North,351,2.0,8.0,90,0.00,,,0.00,meteohub,2013-03-26 23:19:00,
2013-03-26 19:24:00,33.6,30.9,29.68,North,355,3.0,7.0,90,0.00,,,0.00,meteohub,2013-03-26 23:24:00,
2013-03-26 19:30:00,33.4,31.1,29.68,NNE,12,3.0,5.0,91,0.00,,,0.00,meteohub,2013-03-26 23:30:00,
2013-03-26 19:35:00,33.4,31.1,29.68,North,0,1.0,6.0,91,0.00,,,0.00,meteohub,2013-03-26 23:35:00,
2013-03-26 19:40:00,33.3,31.1,29.68,WNW,296,1.0,6.0,92,0.00,,,0.00,meteohub,2013-03-26 23:40:00,
2013-03-26 19:45:00,33.3,31.1,29.68,North,0,1.0,6.0,92,0.00,,,0.00,meteohub,2013-03-26 23:45:00,
2013-03-26 19:50:00,33.3,31.1,29.68,NNW,333,2.0,6.0,92,0.00,,,0.00,meteohub,2013-03-26 23:50:00,
2013-03-26 19:55:00,33.3,31.1,29.68,NNW,337,1.0,5.0,92,0.00,,,0.00,meteohub,2013-03-26 23:55:00,
2013-03-26 20:01:00,33.3,31.1,29.68,NW,311,0.0,6.0,92,0.00,,,0.00,meteohub,2013-03-27 00:01:00,
2013-03-26 20:06:00,33.3,31.1,29.68,NNW,340,2.0,6.0,92,0.00,,,0.00,meteohub,2013-03-27 00:06:00,
2013-03-26 20:12:00,33.3,31.1,29.68,North,5,0.0,6.0,92,0.00,,,0.00,meteohub,2013-03-27 00:12:00,
2013-03-26 20:17:00,33.1,31.1,29.68,NNW,336,3.0,5.0,92,0.00,,,0.00,meteohub,2013-03-27 00:17:00,
2013-03-26 20:22:00,33.1,31.1,29.68,NNW,348,3.0,4.0,92,0.00,,,0.00,meteohub,2013-03-27 00:22:00,
2013-03-26 20:27:00,33.1,31.3,29.68,NNW,341,4.0,7.0,93,0.00,,,0.00,meteohub,2013-03-27 00:27:00,
2013-03-26 20:32:00,33.1,31.3,29.68,WSW,244,1.0,7.0,93,0.00,,,0.00,meteohub,2013-03-27 00:32:00,
2013-03-26 20:37:00,33.1,31.3,29.68,WNW,296,5.0,7.0,93,0.00,,,0.00,meteohub,2013-03-27 00:37:00,
2013-03-26 20:42:00,33.1,31.3,29.68,North,0,0.0,7.0,93,0.00,,,0.00,meteohub,2013-03-27 00:42:00,
2013-03-26 20:48:00,32.9,31.1,29.68,NNW,340,2.0,6.0,93,0.00,,,0.00,meteohub,2013-03-27 00:48:00,
2013-03-26 20:53:00,32.9,31.1,29.68,West,275,0.0,6.0,93,0.00,,,0.00,meteohub,2013-03-27 00:53:00,
2013-03-26 20:58:00,32.7,30.9,29.68,NW,304,1.0,6.0,93,0.00,,,0.00,meteohub,2013-03-27 00:58:00,
2013-03-26 21:03:00,32.7,30.9,29.68,West,279,4.0,6.0,93,0.00,,,0.00,meteohub,2013-03-27 01:03:00,
2013-03-26 21:08:00,32.9,31.1,29.68,NW,320,2.0,6.0,93,0.00,,,0.00,meteohub,2013-03-27 01:08:00,
2013-03-26 21:13:00,32.9,31.1,29.68,WSW,257,2.0,5.0,93,0.00,,,0.00,meteohub,2013-03-27 01:13:00,
2013-03-26 21:19:00,32.7,30.9,29.68,North,5,0.0,5.0,93,0.00,,,0.00,meteohub,2013-03-27 01:19:00,
2013-03-26 21:24:00,32.7,30.9,29.68,NW,311,0.0,5.0,93,0.00,,,0.00,meteohub,2013-03-27 01:24:00,
2013-03-26 21:30:00,32.7,31.1,29.68,North,350,0.0,6.0,94,0.00,,,0.00,meteohub,2013-03-27 01:30:00,
2013-03-26 21:35:00,32.7,31.1,29.68,NNW,343,2.0,6.0,94,0.00,,,0.00,meteohub,2013-03-27 01:35:00,
2013-03-26 21:40:00,32.7,31.1,29.68,NW,317,1.0,6.0,94,0.00,,,0.00,meteohub,2013-03-27 01:40:00,
2013-03-26 21:45:00,32.7,31.1,29.68,NW,313,2.0,4.0,94,0.00,,,0.00,meteohub,2013-03-27 01:45:00,
2013-03-26 21:50:00,32.7,31.1,29.68,North,10,4.0,5.0,94,0.00,,,0.00,meteohub,2013-03-27 01:50:00,
2013-03-26 21:55:00,32.7,31.1,29.68,NNW,348,0.0,5.0,94,0.00,,,0.00,meteohub,2013-03-27 01:55:00,
2013-03-26 22:00:00,32.7,31.1,29.67,NNW,327,0.0,5.0,94,0.00,,,0.00,meteohub,2013-03-27 02:00:00,
2013-03-26 22:06:00,32.7,31.1,29.68,WNW,294,0.0,5.0,94,0.00,,,0.00,meteohub,2013-03-27 02:06:00,
2013-03-26 22:12:00,32.7,31.5,29.68,WNW,286,2.0,5.0,95,0.00,,,0.00,meteohub,2013-03-27 02:12:00,
2013-03-26 22:17:00,32.7,31.5,29.67,NNW,332,3.0,5.0,95,0.00,,,0.00,meteohub,2013-03-27 02:17:00,
2013-03-26 22:22:00,32.7,31.5,29.67,WNW,293,4.0,4.0,95,0.00,,,0.00,meteohub,2013-03-27 02:22:00,
2013-03-26 22:27:00,32.7,31.5,29.67,NNW,347,2.0,4.0,95,0.00,,,0.00,meteohub,2013-03-27 02:27:00,
2013-03-26 22:32:00,32.7,31.5,29.67,North,349,0.0,5.0,95,0.00,,,0.00,meteohub,2013-03-27 02:32:00,
2013-03-26 22:37:00,32.7,31.5,29.67,NNW,344,1.0,5.0,95,0.00,,,0.00,meteohub,2013-03-27 02:37:00,
2013-03-26 22:42:00,32.7,31.5,29.67,North,0,2.0,5.0,95,0.00,,,0.00,meteohub,2013-03-27 02:42:00,
2013-03-26 22:47:00,32.7,31.5,29.67,North,355,2.0,6.0,95,0.00,,,0.00,meteohub,2013-03-27 02:47:00,
2013-03-26 22:52:00,32.7,31.5,29.67,North,5,1.0,6.0,95,0.00,,,0.00,meteohub,2013-03-27 02:52:00,
2013-03-26 22:58:00,32.7,31.5,29.67,NNW,332,1.0,5.0,95,0.00,,,0.00,meteohub,2013-03-27 02:58:00,
2013-03-26 23:03:00,32.7,31.5,29.67,NW,308,2.0,5.0,95,0.00,,,0.00,meteohub,2013-03-27 03:03:00,
2013-03-26 23:08:00,32.7,31.5,29.67,NNW,339,2.0,5.0,95,0.00,,,0.00,meteohub,2013-03-27 03:08:00,
2013-03-26 23:14:00,32.7,31.5,29.67,WNW,295,0.0,5.0,95,0.00,,,0.00,meteohub,2013-03-27 03:14:00,
2013-03-26 23:19:00,32.7,31.5,29.67,NW,321,0.0,5.0,95,0.00,,,0.00,meteohub,2013-03-27 03:19:00,
2013-03-26 23:24:00,32.7,31.5,29.67,WNW,282,3.0,4.0,95,0.00,,,0.00,meteohub,2013-03-27 03:24:00,
2013-03-26 23:29:00,32.7,31.5,29.67,NNW,341,0.0,4.0,95,0.00,,,0.00,meteohub,2013-03-27 03:29:00,
2013-03-26 23:34:00,32.7,31.5,29.67,NW,313,3.0,4.0,95,0.00,,,0.00,meteohub,2013-03-27 03:34:00,
2013-03-26 23:40:00,32.7,31.5,29.67,West,274,5.0,5.0,95,0.00,,,0.00,meteohub,2013-03-27 03:40:00,
2013-03-26 23:45:00,32.9,31.6,29.67,NW,309,0.0,6.0,95,0.00,,,0.00,meteohub,2013-03-27 03:45:00,
2013-03-26 23:50:00,32.9,31.6,29.67,NNW,346,0.0,6.0,95,0.00,,,0.00,meteohub,2013-03-27 03:50:00,
2013-03-26 23:55:00,32.9,31.6,29.67,NW,312,0.0,5.0,95,0.00,,,0.00,meteohub,2013-03-27 03:55:00,